Terminal Aerodrome Forecast
Issued by NWS Wilmington, OH

Current Version | Previous Version | Text Only | Print | Product List | Glossary Off
Versions: 1 2 3 4 5 6 7 8 9 10 11 12 13 14 15 16 17 18 19

881
FTUS41 KILN 140538
TAFDAY
TAF
KDAY 140538Z 1406/1506 29018G30KT P6SM SCT015 OVC022
     FM140900 32016G24KT P6SM BKN015 OVC022
     FM141200 33010KT P6SM OVC022
     FM141600 34006KT P6SM SCT025 OVC200
     FM150200 VRB03KT P6SM OVC150=

USA.gov is the U.S. government's official web portal to all federal, state and local government web resources and services.